Yasny, Russia
Current Conditions -  °F | °C
As of 4:00 PM on Sunday 23 Nov 2014 (Local Time) from UWOR Reporting Station
Broken Clouds Broken Clouds  
Wind Chill: 11°   Ceiling: 1600
Heat Index: 23°   Visibility: 4mi
Dew Point: 19°   Wind: 13mph
Humidity: 86%   Direction: 290°WNW
Pressure: 29.97"   Gusts: NA
Location:  51°N, 59.53°E
Report Text: UWOR 231100Z 29006MPS 7000 BKN016 BKN023 M05/M07 Q1015 25CLRD65NOSIG RMK QFE738/0984
Loading
Personal Weather Stations






























Interactive Weather Map New forecast layout! Learn more

10-Day Weather Forecast

Advertisements
Track Severe Weather on mobile